sensor_id;sensor_type;location;lat;lon;timestamp;pressure;altitude;pressure_sealevel;temperature;humidity
68137;BME280;54939;50.826;9.030;2024-03-29T00:00:19;96884.44;;;12.07;60.73
68137;BME280;54939;50.826;9.030;2024-03-29T00:00:50;96877.25;;;12.07;60.82
68137;BME280;54939;50.826;9.030;2024-03-29T00:01:20;96875.59;;;12.06;60.44
68137;BME280;54939;50.826;9.030;2024-03-29T00:01:50;96877.25;;;12.07;60.81
68137;BME280;54939;50.826;9.030;2024-03-29T00:02:21;96877.25;;;12.07;60.59
68137;BME280;54939;50.826;9.030;2024-03-29T00:02:51;96878.25;;;12.06;60.64
68137;BME280;54939;50.826;9.030;2024-03-29T00:03:21;96882.59;;;12.07;60.48
68137;BME280;54939;50.826;9.030;2024-03-29T00:03:51;96887.94;;;12.07;60.45
68137;BME280;54939;50.826;9.030;2024-03-29T00:04:23;96878.25;;;12.06;60.57
68137;BME280;54939;50.826;9.030;2024-03-29T00:04:53;96879.09;;;12.07;60.74
68137;BME280;54939;50.826;9.030;2024-03-29T00:05:23;96880.94;;;12.06;60.34
68137;BME280;54939;50.826;9.030;2024-03-29T00:05:53;96873.75;;;12.07;60.51
68137;BME280;54939;50.826;9.030;2024-03-29T00:06:24;96872.91;;;12.06;60.41
68137;BME280;54939;50.826;9.030;2024-03-29T00:06:54;96871.88;;;12.07;60.66
68137;BME280;54939;50.826;9.030;2024-03-29T00:07:24;96866.75;;;12.06;60.50
68137;BME280;54939;50.826;9.030;2024-03-29T00:07:54;96871.06;;;12.07;61.01
68137;BME280;54939;50.826;9.030;2024-03-29T00:08:24;96864.06;;;12.06;60.65
68137;BME280;54939;50.826;9.030;2024-03-29T00:08:54;96864.06;;;12.06;60.62
68137;BME280;54939;50.826;9.030;2024-03-29T00:09:24;96866.75;;;12.06;60.42
68137;BME280;54939;50.826;9.030;2024-03-29T00:09:55;96873.94;;;12.05;60.67
68137;BME280;54939;50.826;9.030;2024-03-29T00:10:25;96858.72;;;12.06;60.67
68137;BME280;54939;50.826;9.030;2024-03-29T00:10:55;96853.38;;;12.06;60.96
68137;BME280;54939;50.826;9.030;2024-03-29T00:11:25;96864.88;;;12.06;60.70
68137;BME280;54939;50.826;9.030;2024-03-29T00:11:55;96864.88;;;12.06;60.83
68137;BME280;54939;50.826;9.030;2024-03-29T00:12:25;96859.53;;;12.06;60.72
68137;BME280;54939;50.826;9.030;2024-03-29T00:12:55;96853.38;;;12.06;60.67
68137;BME280;54939;50.826;9.030;2024-03-29T00:13:26;96858.72;;;12.06;60.55
68137;BME280;54939;50.826;9.030;2024-03-29T00:13:56;96855.22;;;12.05;60.94
68137;BME280;54939;50.826;9.030;2024-03-29T00:14:26;96855.22;;;12.05;61.02
68137;BME280;54939;50.826;9.030;2024-03-29T00:14:56;96852.75;;;12.04;60.60
68137;BME280;54939;50.826;9.030;2024-03-29T00:15:26;96855.41;;;12.04;60.41
68137;BME280;54939;50.826;9.030;2024-03-29T00:15:56;96845.53;;;12.04;60.42
68137;BME280;54939;50.826;9.030;2024-03-29T00:16:27;96843.91;;;12.03;60.38
68137;BME280;54939;50.826;9.030;2024-03-29T00:16:57;96851.91;;;12.03;60.40
68137;BME280;54939;50.826;9.030;2024-03-29T00:17:27;96847.41;;;12.04;60.48
68137;BME280;54939;50.826;9.030;2024-03-29T00:17:57;96845.53;;;12.04;60.64
68137;BME280;54939;50.826;9.030;2024-03-29T00:18:27;96850.06;;;12.04;60.66
68137;BME280;54939;50.826;9.030;2024-03-29T00:18:57;96845.53;;;12.04;60.45
68137;BME280;54939;50.826;9.030;2024-03-29T00:19:27;96840.19;;;12.04;60.78
68137;BME280;54939;50.826;9.030;2024-03-29T00:19:58;96838.34;;;12.05;60.62
68137;BME280;54939;50.826;9.030;2024-03-29T00:20:28;96843.91;;;12.03;60.60
68137;BME280;54939;50.826;9.030;2024-03-29T00:20:59;96838.56;;;12.03;60.64
68137;BME280;54939;50.826;9.030;2024-03-29T00:21:29;96846.56;;;12.03;60.94
68137;BME280;54939;50.826;9.030;2024-03-29T00:21:59;96845.53;;;12.04;60.56
68137;BME280;54939;50.826;9.030;2024-03-29T00:22:29;96841.22;;;12.03;60.64
68137;BME280;54939;50.826;9.030;2024-03-29T00:22:59;96845.53;;;12.04;60.89
68137;BME280;54939;50.826;9.030;2024-03-29T00:23:29;96843.91;;;12.03;60.43
68137;BME280;54939;50.826;9.030;2024-03-29T00:24:00;96838.56;;;12.03;60.65
68137;BME280;54939;50.826;9.030;2024-03-29T00:24:30;96849.03;;;12.05;60.74
68137;BME280;54939;50.826;9.030;2024-03-29T00:25:00;96845.53;;;12.04;60.81
68137;BME280;54939;50.826;9.030;2024-03-29T00:25:30;96842.88;;;12.04;60.82
68137;BME280;54939;50.826;9.030;2024-03-29T00:26:00;96832.41;;;12.03;60.41
68137;BME280;54939;50.826;9.030;2024-03-29T00:26:30;96840.19;;;12.04;60.58
68137;BME280;54939;50.826;9.030;2024-03-29T00:27:01;96828.47;;;12.05;60.71
68137;BME280;54939;50.826;9.030;2024-03-29T00:27:32;96828.47;;;12.05;60.75
68137;BME280;54939;50.826;9.030;2024-03-29T00:28:03;96827.84;;;12.03;60.91
68137;BME280;54939;50.826;9.030;2024-03-29T00:28:33;96827.06;;;12.03;60.67
68137;BME280;54939;50.826;9.030;2024-03-29T00:29:03;96835.09;;;12.03;60.72
68137;BME280;54939;50.826;9.030;2024-03-29T00:29:34;96825.19;;;12.03;60.61
68137;BME280;54939;50.826;9.030;2024-03-29T00:30:04;96822.50;;;12.03;60.48
68137;BME280;54939;50.826;9.030;2024-03-29T00:30:34;96825.19;;;12.03;60.58
68137;BME280;54939;50.826;9.030;2024-03-29T00:31:05;96820.66;;;12.04;60.74
68137;BME280;54939;50.826;9.030;2024-03-29T00:31:35;96816.94;;;12.05;60.44
68137;BME280;54939;50.826;9.030;2024-03-29T00:32:05;96814.28;;;12.05;60.51
68137;BME280;54939;50.826;9.030;2024-03-29T00:32:35;96817.97;;;12.04;60.48
68137;BME280;54939;50.826;9.030;2024-03-29T00:33:06;96818.81;;;12.04;60.80
68137;BME280;54939;50.826;9.030;2024-03-29T00:33:36;96814.47;;;12.03;60.43
68137;BME280;54939;50.826;9.030;2024-03-29T00:34:06;96816.38;;;12.03;60.20
68137;BME280;54939;50.826;9.030;2024-03-29T00:34:36;96816.38;;;12.03;60.62
68137;BME280;54939;50.826;9.030;2024-03-29T00:35:06;96817.97;;;12.04;60.54
68137;BME280;54939;50.826;9.030;2024-03-29T00:35:37;96818.81;;;12.04;60.47
68137;BME280;54939;50.826;9.030;2024-03-29T00:36:08;96818.81;;;12.04;60.75
68137;BME280;54939;50.826;9.030;2024-03-29T00:36:38;96821.47;;;12.04;61.15
68137;BME280;54939;50.826;9.030;2024-03-29T00:37:08;96822.31;;;12.05;60.77
68137;BME280;54939;50.826;9.030;2024-03-29T00:37:38;96824.97;;;12.05;60.68
68137;BME280;54939;50.826;9.030;2024-03-29T00:38:08;96823.94;;;12.06;60.50
68137;BME280;54939;50.826;9.030;2024-03-29T00:38:38;96825.81;;;12.05;60.61
68137;BME280;54939;50.826;9.030;2024-03-29T00:39:09;96827.44;;;12.06;60.81
68137;BME280;54939;50.826;9.030;2024-03-29T00:39:41;96823.94;;;12.06;60.59
68137;BME280;54939;50.826;9.030;2024-03-29T00:40:12;96830.94;;;12.07;60.95
68137;BME280;54939;50.826;9.030;2024-03-29T00:40:42;96831.78;;;12.07;60.96
68137;BME280;54939;50.826;9.030;2024-03-29T00:41:12;96822.94;;;12.07;60.96
68137;BME280;54939;50.826;9.030;2024-03-29T00:41:42;96828.28;;;12.07;60.94
68137;BME280;54939;50.826;9.030;2024-03-29T00:42:12;96825.59;;;12.07;60.79
68137;BME280;54939;50.826;9.030;2024-03-29T00:42:45;96832.78;;;12.06;60.51
68137;BME280;54939;50.826;9.030;2024-03-29T00:43:16;96831.16;;;12.05;60.51
68137;BME280;54939;50.826;9.030;2024-03-29T00:43:46;96824.78;;;12.06;60.65
68137;BME280;54939;50.826;9.030;2024-03-29T00:44:17;96828.28;;;12.07;60.83
68137;BME280;54939;50.826;9.030;2024-03-29T00:44:47;96825.81;;;12.05;60.88
68137;BME280;54939;50.826;9.030;2024-03-29T00:45:17;96822.09;;;12.06;60.78
68137;BME280;54939;50.826;9.030;2024-03-29T00:45:48;96827.44;;;12.06;61.02
68137;BME280;54939;50.826;9.030;2024-03-29T00:46:18;96816.75;;;12.06;60.81
68137;BME280;54939;50.826;9.030;2024-03-29T00:46:48;96822.09;;;12.06;60.62
68137;BME280;54939;50.826;9.030;2024-03-29T00:47:18;96816.75;;;12.06;61.11
68137;BME280;54939;50.826;9.030;2024-03-29T00:47:48;96819.44;;;12.06;60.70
68137;BME280;54939;50.826;9.030;2024-03-29T00:48:18;96815.09;;;12.05;60.66
68137;BME280;54939;50.826;9.030;2024-03-29T00:48:50;96815.94;;;12.06;60.62
68137;BME280;54939;50.826;9.030;2024-03-29T00:49:20;96815.09;;;12.05;60.61
68137;BME280;54939;50.826;9.030;2024-03-29T00:49:50;96807.09;;;12.05;60.65
68137;BME280;54939;50.826;9.030;2024-03-29T00:50:20;96803.59;;;12.05;60.71
68137;BME280;54939;50.826;9.030;2024-03-29T00:50:51;96802.75;;;12.04;60.92
68137;BME280;54939;50.826;9.030;2024-03-29T00:51:21;96807.09;;;12.05;60.51
68137;BME280;54939;50.826;9.030;2024-03-29T00:51:51;96805.22;;;12.06;60.92
68137;BME280;54939;50.826;9.030;2024-03-29T00:52:21;96803.59;;;12.05;60.99
68137;BME280;54939;50.826;9.030;2024-03-29T00:52:51;96802.75;;;12.04;60.91
68137;BME280;54939;50.826;9.030;2024-03-29T00:53:21;96803.59;;;12.05;60.90
68137;BME280;54939;50.826;9.030;2024-03-29T00:53:51;96802.75;;;12.04;60.67
68137;BME280;54939;50.826;9.030;2024-03-29T00:54:24;96797.41;;;12.04;60.56
68137;BME280;54939;50.826;9.030;2024-03-29T00:54:54;96796.59;;;12.04;60.79
68137;BME280;54939;50.826;9.030;2024-03-29T00:55:24;96790.41;;;12.03;60.68
68137;BME280;54939;50.826;9.030;2024-03-29T00:55:54;96785.06;;;12.03;60.48
68137;BME280;54939;50.826;9.030;2024-03-29T00:56:25;96784.28;;;12.03;60.55
68137;BME280;54939;50.826;9.030;2024-03-29T00:56:55;96790.41;;;12.03;60.90
68137;BME280;54939;50.826;9.030;2024-03-29T00:57:25;96785.06;;;12.03;60.58
68137;BME280;54939;50.826;9.030;2024-03-29T00:57:55;96784.03;;;12.04;60.69
68137;BME280;54939;50.826;9.030;2024-03-29T00:58:25;96789.38;;;12.04;60.88
68137;BME280;54939;50.826;9.030;2024-03-29T00:58:55;96793.91;;;12.04;60.70
68137;BME280;54939;50.826;9.030;2024-03-29T00:59:26;96793.72;;;12.05;60.74
68137;BME280;54939;50.826;9.030;2024-03-29T00:59:56;96801.94;;;12.04;60.84
68137;BME280;54939;50.826;9.030;2024-03-29T01:00:26;96803.78;;;12.03;60.76
68137;BME280;54939;50.826;9.030;2024-03-29T01:00:57;96787.75;;;12.03;61.03
68137;BME280;54939;50.826;9.030;2024-03-29T01:01:27;96793.91;;;12.04;60.78
68137;BME280;54939;50.826;9.030;2024-03-29T01:01:57;96797.41;;;12.04;61.04
68137;BME280;54939;50.826;9.030;2024-03-29T01:02:27;96793.09;;;12.03;60.84
68137;BME280;54939;50.826;9.030;2024-03-29T01:02:57;96794.75;;;12.04;60.65
68137;BME280;54939;50.826;9.030;2024-03-29T01:03:28;96800.09;;;12.04;60.79
68137;BME280;54939;50.826;9.030;2024-03-29T01:04:00;96783.22;;;12.04;60.65
68137;BME280;54939;50.826;9.030;2024-03-29T01:04:30;96780.78;;;12.02;60.62
68137;BME280;54939;50.826;9.030;2024-03-29T01:05:00;96788.81;;;12.02;60.75
68137;BME280;54939;50.826;9.030;2024-03-29T01:05:31;96787.97;;;12.02;60.80
68137;BME280;54939;50.826;9.030;2024-03-29T01:06:01;96779.13;;;12.01;60.96
68137;BME280;54939;50.826;9.030;2024-03-29T01:06:31;96781.81;;;12.01;60.96
68137;BME280;54939;50.826;9.030;2024-03-29T01:07:01;96783.66;;;12.01;60.85
68137;BME280;54939;50.826;9.030;2024-03-29T01:07:31;96787.97;;;12.02;60.84
68137;BME280;54939;50.826;9.030;2024-03-29T01:08:01;96778.09;;;12.02;61.02
68137;BME280;54939;50.826;9.030;2024-03-29T01:08:32;96787.16;;;12.01;60.67
68137;BME280;54939;50.826;9.030;2024-03-29T01:09:02;96787.97;;;12.02;60.82
68137;BME280;54939;50.826;9.030;2024-03-29T01:09:33;96777.28;;;12.02;60.99
68137;BME280;54939;50.826;9.030;2024-03-29T01:10:03;96781.81;;;12.01;60.77
68137;BME280;54939;50.826;9.030;2024-03-29T01:10:33;96778.31;;;12.01;60.66
68137;BME280;54939;50.826;9.030;2024-03-29T01:11:03;96785.31;;;12.02;60.66
68137;BME280;54939;50.826;9.030;2024-03-29T01:11:34;96775.63;;;12.01;60.88
68137;BME280;54939;50.826;9.030;2024-03-29T01:12:04;96776.47;;;12.01;60.82
68137;BME280;54939;50.826;9.030;2024-03-29T01:12:35;96770.09;;;12.02;60.93
68137;BME280;54939;50.826;9.030;2024-03-29T01:13:05;96778.94;;;12.03;60.92
68137;BME280;54939;50.826;9.030;2024-03-29T01:13:35;96770.91;;;12.03;60.78
68137;BME280;54939;50.826;9.030;2024-03-29T01:14:06;96763.69;;;12.03;60.69
68137;BME280;54939;50.826;9.030;2024-03-29T01:14:37;96772.75;;;12.02;61.17
68137;BME280;54939;50.826;9.030;2024-03-29T01:15:07;96770.91;;;12.03;60.87
68137;BME280;54939;50.826;9.030;2024-03-29T01:15:37;96773.56;;;12.03;61.25
68137;BME280;54939;50.826;9.030;2024-03-29T01:16:07;96772.97;;;12.01;60.98
68137;BME280;54939;50.826;9.030;2024-03-29T01:16:38;96779.72;;;12.03;61.17
68137;BME280;54939;50.826;9.030;2024-03-29T01:17:08;96771.69;;;12.03;61.13
68137;BME280;54939;50.826;9.030;2024-03-29T01:17:38;96778.69;;;12.04;60.94
68137;BME280;54939;50.826;9.030;2024-03-29T01:18:08;96774.16;;;12.05;60.83
68137;BME280;54939;50.826;9.030;2024-03-29T01:18:40;96778.69;;;12.04;60.63
68137;BME280;54939;50.826;9.030;2024-03-29T01:19:13;96782.19;;;12.05;60.72
68137;BME280;54939;50.826;9.030;2024-03-29T01:19:43;96772.31;;;12.05;60.87
68137;BME280;54939;50.826;9.030;2024-03-29T01:20:13;96784.66;;;12.06;60.83
68137;BME280;54939;50.826;9.030;2024-03-29T01:20:44;96797.41;;;12.04;60.83
68137;BME280;54939;50.826;9.030;2024-03-29T01:21:14;96785.69;;;12.05;60.69
68137;BME280;54939;50.826;9.030;2024-03-29T01:21:44;96795.75;;;12.03;60.74
68137;BME280;54939;50.826;9.030;2024-03-29T01:22:14;96797.41;;;12.04;60.91
68137;BME280;54939;50.826;9.030;2024-03-29T01:22:44;96795.75;;;12.03;60.84
68137;BME280;54939;50.826;9.030;2024-03-29T01:23:15;96800.09;;;12.04;60.78
68137;BME280;54939;50.826;9.030;2024-03-29T01:23:45;96805.44;;;12.04;60.82
68137;BME280;54939;50.826;9.030;2024-03-29T01:24:15;96803.59;;;12.05;60.78
68137;BME280;54939;50.826;9.030;2024-03-29T01:24:45;96804.59;;;12.04;61.18
68137;BME280;54939;50.826;9.030;2024-03-29T01:25:16;96798.22;;;12.05;61.20
68137;BME280;54939;50.826;9.030;2024-03-29T01:25:47;96801.72;;;12.05;61.11
68137;BME280;54939;50.826;9.030;2024-03-29T01:26:17;96797.41;;;12.04;60.71
68137;BME280;54939;50.826;9.030;2024-03-29T01:26:47;96796.38;;;12.05;61.05
68137;BME280;54939;50.826;9.030;2024-03-29T01:27:17;96787.53;;;12.05;61.07
68137;BME280;54939;50.826;9.030;2024-03-29T01:27:48;96789.38;;;12.04;60.88
68137;BME280;54939;50.826;9.030;2024-03-29T01:28:18;96785.69;;;12.05;61.09
68137;BME280;54939;50.826;9.030;2024-03-29T01:28:48;96788.38;;;12.05;61.05
68137;BME280;54939;50.826;9.030;2024-03-29T01:29:18;96791.03;;;12.05;60.86
68137;BME280;54939;50.826;9.030;2024-03-29T01:29:48;96792.06;;;12.04;60.88
68137;BME280;54939;50.826;9.030;2024-03-29T01:30:19;96786.72;;;12.04;60.88
68137;BME280;54939;50.826;9.030;2024-03-29T01:30:52;96781.38;;;12.04;60.81
68137;BME280;54939;50.826;9.030;2024-03-29T01:31:23;96774.38;;;12.03;61.19
68137;BME280;54939;50.826;9.030;2024-03-29T01:31:53;96769.03;;;12.03;61.35
68137;BME280;54939;50.826;9.030;2024-03-29T01:32:23;96778.69;;;12.04;61.26
68137;BME280;54939;50.826;9.030;2024-03-29T01:32:53;96773.56;;;12.03;61.13
68137;BME280;54939;50.826;9.030;2024-03-29T01:33:24;96778.69;;;12.04;60.92
68137;BME280;54939;50.826;9.030;2024-03-29T01:33:54;96780.53;;;12.04;60.87
68137;BME280;54939;50.826;9.030;2024-03-29T01:34:27;96780.34;;;12.05;61.24
68137;BME280;54939;50.826;9.030;2024-03-29T01:34:57;96784.03;;;12.04;61.30
68137;BME280;54939;50.826;9.030;2024-03-29T01:35:28;96782.41;;;12.03;61.23
68137;BME280;54939;50.826;9.030;2024-03-29T01:35:58;96785.06;;;12.03;61.23
68137;BME280;54939;50.826;9.030;2024-03-29T01:36:28;96784.28;;;12.03;61.03
68137;BME280;54939;50.826;9.030;2024-03-29T01:36:58;96786.94;;;12.03;61.10
68137;BME280;54939;50.826;9.030;2024-03-29T01:37:28;96794.97;;;12.03;61.16
68137;BME280;54939;50.826;9.030;2024-03-29T01:38:00;96786.72;;;12.04;61.24
68137;BME280;54939;50.826;9.030;2024-03-29T01:38:30;96798.22;;;12.05;61.17
68137;BME280;54939;50.826;9.030;2024-03-29T01:39:01;96794.75;;;12.04;61.13
68137;BME280;54939;50.826;9.030;2024-03-29T01:39:31;96787.75;;;12.03;61.12
68137;BME280;54939;50.826;9.030;2024-03-29T01:40:02;96790.41;;;12.03;61.11
68137;BME280;54939;50.826;9.030;2024-03-29T01:40:32;96795.75;;;12.03;60.91
68137;BME280;54939;50.826;9.030;2024-03-29T01:41:02;96791.47;;;12.02;61.25
68137;BME280;54939;50.826;9.030;2024-03-29T01:41:33;96801.13;;;12.03;61.05
68137;BME280;54939;50.826;9.030;2024-03-29T01:42:03;96799.50;;;12.02;60.90
68137;BME280;54939;50.826;9.030;2024-03-29T01:42:33;96799.50;;;12.02;61.08
68137;BME280;54939;50.826;9.030;2024-03-29T01:43:03;96804.84;;;12.02;61.17
68137;BME280;54939;50.826;9.030;2024-03-29T01:43:33;96797.66;;;12.03;61.23
68137;BME280;54939;50.826;9.030;2024-03-29T01:44:04;96803.00;;;12.03;61.34
68137;BME280;54939;50.826;9.030;2024-03-29T01:44:34;96801.13;;;12.03;61.18
68137;BME280;54939;50.826;9.030;2024-03-29T01:45:05;96800.31;;;12.03;61.27
68137;BME280;54939;50.826;9.030;2024-03-29T01:45:38;96803.78;;;12.03;61.29
68137;BME280;54939;50.826;9.030;2024-03-29T01:46:08;96809.97;;;12.04;60.97
68137;BME280;54939;50.826;9.030;2024-03-29T01:46:38;96807.28;;;12.04;61.26
68137;BME280;54939;50.826;9.030;2024-03-29T01:47:09;96797.41;;;12.04;61.19
68137;BME280;54939;50.826;9.030;2024-03-29T01:47:39;96801.72;;;12.05;61.04
68137;BME280;54939;50.826;9.030;2024-03-29T01:48:09;96804.59;;;12.04;60.95
68137;BME280;54939;50.826;9.030;2024-03-29T01:48:40;96806.25;;;12.05;61.19
68137;BME280;54939;50.826;9.030;2024-03-29T01:49:10;96807.28;;;12.04;61.03
68137;BME280;54939;50.826;9.030;2024-03-29T01:49:41;96801.94;;;12.04;60.92
68137;BME280;54939;50.826;9.030;2024-03-29T01:50:11;96809.13;;;12.03;61.13
68137;BME280;54939;50.826;9.030;2024-03-29T01:50:42;96803.78;;;12.03;60.91
68137;BME280;54939;50.826;9.030;2024-03-29T01:51:13;96805.66;;;12.03;61.05
68137;BME280;54939;50.826;9.030;2024-03-29T01:51:44;96813.69;;;12.03;61.01
68137;BME280;54939;50.826;9.030;2024-03-29T01:52:14;96816.13;;;12.04;61.13
68137;BME280;54939;50.826;9.030;2024-03-29T01:52:46;96809.13;;;12.03;61.28
68137;BME280;54939;50.826;9.030;2024-03-29T01:53:18;96800.31;;;12.03;61.30
68137;BME280;54939;50.826;9.030;2024-03-29T01:53:49;96808.34;;;12.03;61.10
68137;BME280;54939;50.826;9.030;2024-03-29T01:54:20;96810.19;;;12.02;61.10
68137;BME280;54939;50.826;9.030;2024-03-29T01:54:50;96809.38;;;12.02;61.17
68137;BME280;54939;50.826;9.030;2024-03-29T01:55:21;96815.53;;;12.02;61.37
68137;BME280;54939;50.826;9.030;2024-03-29T01:55:51;96810.19;;;12.02;61.07
68137;BME280;54939;50.826;9.030;2024-03-29T01:56:22;96804.03;;;12.02;61.08
68137;BME280;54939;50.826;9.030;2024-03-29T01:56:52;96807.53;;;12.02;61.25
68137;BME280;54939;50.826;9.030;2024-03-29T01:57:23;96805.66;;;12.03;61.36
68137;BME280;54939;50.826;9.030;2024-03-29T01:57:54;96813.69;;;12.03;61.37
68137;BME280;54939;50.826;9.030;2024-03-29T01:58:24;96808.34;;;12.03;61.04
68137;BME280;54939;50.826;9.030;2024-03-29T01:58:55;96808.34;;;12.03;61.44
68137;BME280;54939;50.826;9.030;2024-03-29T01:59:27;96806.47;;;12.03;61.24
68137;BME280;54939;50.826;9.030;2024-03-29T01:59:58;96806.47;;;12.03;61.30
68137;BME280;54939;50.826;9.030;2024-03-29T02:00:28;96801.34;;;12.02;61.17
68137;BME280;54939;50.826;9.030;2024-03-29T02:00:59;96804.03;;;12.02;61.46
68137;BME280;54939;50.826;9.030;2024-03-29T02:01:30;96811.22;;;12.01;61.17
68137;BME280;54939;50.826;9.030;2024-03-29T02:02:00;96805.03;;;12.01;61.16
68137;BME280;54939;50.826;9.030;2024-03-29T02:02:31;96808.53;;;12.01;61.32
68137;BME280;54939;50.826;9.030;2024-03-29T02:03:02;96806.91;;;12.00;61.42
68137;BME280;54939;50.826;9.030;2024-03-29T02:03:34;96804.22;;;12.00;61.25
68137;BME280;54939;50.826;9.030;2024-03-29T02:04:04;96805.88;;;12.01;61.32
68137;BME280;54939;50.826;9.030;2024-03-29T02:04:34;96806.91;;;12.00;61.17
68137;BME280;54939;50.826;9.030;2024-03-29T02:05:05;96798.88;;;12.00;61.45
68137;BME280;54939;50.826;9.030;2024-03-29T02:05:35;96799.91;;;11.99;61.35
68137;BME280;54939;50.826;9.030;2024-03-29T02:06:06;96799.91;;;11.99;61.14
68137;BME280;54939;50.826;9.030;2024-03-29T02:06:37;96805.25;;;11.99;61.36
68137;BME280;54939;50.826;9.030;2024-03-29T02:07:08;96803.41;;;12.00;61.22
68137;BME280;54939;50.826;9.030;2024-03-29T02:07:38;96804.22;;;12.00;61.22
68137;BME280;54939;50.826;9.030;2024-03-29T02:08:10;96806.06;;;12.00;61.33
68137;BME280;54939;50.826;9.030;2024-03-29T02:08:40;96806.06;;;12.00;61.44
68137;BME280;54939;50.826;9.030;2024-03-29T02:09:10;96803.41;;;12.00;61.41
68137;BME280;54939;50.826;9.030;2024-03-29T02:09:40;96806.91;;;12.00;61.34
68137;BME280;54939;50.826;9.030;2024-03-29T02:10:10;96804.22;;;12.00;61.45
68137;BME280;54939;50.826;9.030;2024-03-29T02:10:46;96801.56;;;12.00;61.46
68137;BME280;54939;50.826;9.030;2024-03-29T02:11:16;96801.56;;;12.00;61.32
68137;BME280;54939;50.826;9.030;2024-03-29T02:11:47;96794.56;;;11.99;61.18
68137;BME280;54939;50.826;9.030;2024-03-29T02:12:17;96798.06;;;12.00;61.05
68137;BME280;54939;50.826;9.030;2024-03-29T02:12:47;96795.38;;;12.00;61.21
68137;BME280;54939;50.826;9.030;2024-03-29T02:13:17;96789.19;;;11.99;61.11
68137;BME280;54939;50.826;9.030;2024-03-29T02:13:48;96795.38;;;12.00;61.28
68137;BME280;54939;50.826;9.030;2024-03-29T02:14:19;96787.34;;;12.00;61.46
68137;BME280;54939;50.826;9.030;2024-03-29T02:14:49;96794.34;;;12.01;61.28
68137;BME280;54939;50.826;9.030;2024-03-29T02:15:19;96796.19;;;12.00;61.38
68137;BME280;54939;50.826;9.030;2024-03-29T02:15:49;96795.38;;;12.00;61.21
68137;BME280;54939;50.826;9.030;2024-03-29T02:16:19;96789.19;;;11.99;61.17
68137;BME280;54939;50.826;9.030;2024-03-29T02:16:50;96793.53;;;12.00;61.11
68137;BME280;54939;50.826;9.030;2024-03-29T02:17:20;96780.16;;;12.00;61.18
68137;BME280;54939;50.826;9.030;2024-03-29T02:17:50;96785.50;;;12.00;61.09
68137;BME280;54939;50.826;9.030;2024-03-29T02:18:21;96783.66;;;12.01;61.13
68137;BME280;54939;50.826;9.030;2024-03-29T02:18:51;96788.19;;;12.00;61.10
68137;BME280;54939;50.826;9.030;2024-03-29T02:19:21;96786.31;;;12.01;61.24
68137;BME280;54939;50.826;9.030;2024-03-29T02:19:51;96776.47;;;12.01;61.44
68137;BME280;54939;50.826;9.030;2024-03-29T02:20:21;96779.13;;;12.01;61.40
68137;BME280;54939;50.826;9.030;2024-03-29T02:20:52;96769.47;;;12.00;61.14
68137;BME280;54939;50.826;9.030;2024-03-29T02:21:22;96769.66;;;11.99;61.13
68137;BME280;54939;50.826;9.030;2024-03-29T02:21:52;96765.13;;;11.99;61.25
68137;BME280;54939;50.826;9.030;2024-03-29T02:22:25;96769.66;;;11.99;61.38
68137;BME280;54939;50.826;9.030;2024-03-29T02:23:01;96760.81;;;11.98;61.38
68137;BME280;54939;50.826;9.030;2024-03-29T02:23:32;96760.00;;;11.98;61.31
68137;BME280;54939;50.826;9.030;2024-03-29T02:24:06;96765.34;;;11.98;61.18
68137;BME280;54939;50.826;9.030;2024-03-29T02:24:36;96766.16;;;11.98;61.40
68137;BME280;54939;50.826;9.030;2024-03-29T02:25:07;96760.81;;;11.98;61.54
68137;BME280;54939;50.826;9.030;2024-03-29T02:25:37;96757.13;;;11.99;61.55
68137;BME280;54939;50.826;9.030;2024-03-29T02:26:08;96750.31;;;11.97;61.09
68137;BME280;54939;50.826;9.030;2024-03-29T02:26:38;96748.47;;;11.97;61.28
68137;BME280;54939;50.826;9.030;2024-03-29T02:27:11;96754.66;;;11.98;61.49
68137;BME280;54939;50.826;9.030;2024-03-29T02:27:42;96753.81;;;11.97;61.37
68137;BME280;54939;50.826;9.030;2024-03-29T02:28:12;96751.97;;;11.98;61.23
68137;BME280;54939;50.826;9.030;2024-03-29T02:28:43;96764.53;;;11.97;61.34
68137;BME280;54939;50.826;9.030;2024-03-29T02:29:13;96759.16;;;11.97;61.55
68137;BME280;54939;50.826;9.030;2024-03-29T02:29:43;96771.50;;;11.98;61.43
68137;BME280;54939;50.826;9.030;2024-03-29T02:30:13;96760.00;;;11.98;61.50
68137;BME280;54939;50.826;9.030;2024-03-29T02:30:44;96764.53;;;11.97;61.18
68137;BME280;54939;50.826;9.030;2024-03-29T02:31:14;96760.81;;;11.98;61.39
68137;BME280;54939;50.826;9.030;2024-03-29T02:31:45;96761.84;;;11.97;61.17
68137;BME280;54939;50.826;9.030;2024-03-29T02:32:15;96765.34;;;11.98;61.18
68137;BME280;54939;50.826;9.030;2024-03-29T02:32:46;96766.38;;;11.97;61.47
68137;BME280;54939;50.826;9.030;2024-03-29T02:33:16;96760.00;;;11.98;61.18
68137;BME280;54939;50.826;9.030;2024-03-29T02:33:46;96760.81;;;11.98;61.55
68137;BME280;54939;50.826;9.030;2024-03-29T02:34:16;96756.50;;;11.97;61.33
68137;BME280;54939;50.826;9.030;2024-03-29T02:34:47;96757.31;;;11.98;61.16
68137;BME280;54939;50.826;9.030;2024-03-29T02:35:17;96747.66;;;11.97;61.46
68137;BME280;54939;50.826;9.030;2024-03-29T02:35:47;96751.97;;;11.98;61.34
68137;BME280;54939;50.826;9.030;2024-03-29T02:36:17;96746.63;;;11.98;61.33
68137;BME280;54939;50.826;9.030;2024-03-29T02:36:47;96748.47;;;11.97;61.29
68137;BME280;54939;50.826;9.030;2024-03-29T02:37:18;96750.31;;;11.97;61.32
68137;BME280;54939;50.826;9.030;2024-03-29T02:37:48;96739.63;;;11.97;61.51
68137;BME280;54939;50.826;9.030;2024-03-29T02:38:18;96743.38;;;11.96;61.48
68137;BME280;54939;50.826;9.030;2024-03-29T02:38:48;96739.88;;;11.95;61.23
68137;BME280;54939;50.826;9.030;2024-03-29T02:39:18;96740.69;;;11.96;61.62
68137;BME280;54939;50.826;9.030;2024-03-29T02:39:48;96739.03;;;11.95;61.18
68137;BME280;54939;50.826;9.030;2024-03-29T02:40:19;96736.38;;;11.95;61.25
68137;BME280;54939;50.826;9.030;2024-03-29T02:40:49;96726.50;;;11.95;61.43
68137;BME280;54939;50.826;9.030;2024-03-29T02:41:19;96736.16;;;11.96;61.23